createdAt,value
2022-09-24T00:02:16.776Z,16.05
2022-09-24T00:05:02.001Z,16.15
2022-09-24T00:07:46.945Z,16.50
2022-09-24T00:10:31.750Z,16.65
2022-09-24T00:13:18.212Z,16.35
2022-09-24T00:16:06.227Z,16.58
2022-09-24T00:18:51.956Z,17.02
2022-09-24T00:21:38.791Z,15.80
2022-09-24T00:24:24.155Z,16.10
2022-09-24T00:27:09.302Z,15.27
2022-09-24T00:29:54.579Z,14.90
2022-09-24T00:32:39.427Z,14.63
2022-09-24T00:35:24.427Z,15.27
2022-09-24T00:38:09.850Z,15.70
2022-09-24T00:40:55.135Z,15.75
2022-09-24T00:43:40.028Z,15.98
2022-09-24T00:46:42.659Z,15.48
2022-09-24T00:49:28.010Z,16.67
2022-09-24T00:52:13.952Z,17.05
2022-09-24T00:54:59.516Z,16.85
2022-09-24T00:57:46.930Z,16.60
2022-09-24T01:00:33.214Z,16.80
2022-09-24T01:03:24.279Z,17.88
2022-09-24T01:06:09.963Z,15.63
2022-09-24T01:08:56.475Z,16.50
2022-09-24T01:12:00.497Z,16.80
2022-09-24T01:15:15.333Z,16.15
2022-09-24T01:18:07.262Z,18.48
2022-09-24T01:21:07.292Z,19.73
2022-09-24T01:24:06.928Z,18.75
2022-09-24T01:26:52.305Z,18.33
2022-09-24T01:29:49.469Z,17.48
2022-09-24T01:32:40.711Z,17.63
2022-09-24T01:35:25.654Z,18.45
2022-09-24T01:38:28.745Z,18.38
2022-09-24T01:41:16.853Z,16.90
2022-09-24T01:44:03.296Z,20.58
2022-09-24T01:46:49.121Z,18.40
2022-09-24T01:49:34.333Z,19.10
2022-09-24T01:52:25.858Z,17.80
2022-09-24T01:55:15.767Z,19.98
2022-09-24T01:58:08.470Z,19.08
2022-09-24T02:01:01.665Z,19.45
2022-09-24T02:03:53.278Z,19.55
2022-09-24T02:07:00.531Z,19.67
2022-09-24T02:09:45.722Z,19.55
2022-09-24T02:12:37.933Z,18.40
2022-09-24T02:15:32.515Z,17.48
2022-09-24T02:18:21.985Z,19.77
2022-09-24T02:21:12.454Z,17.48
2022-09-24T02:24:05.441Z,18.23
2022-09-24T02:26:50.759Z,18.27
2022-09-24T02:29:36.256Z,19.00
2022-09-24T02:32:24.792Z,19.08
2022-09-24T02:35:12.762Z,18.52
2022-09-24T02:37:57.894Z,18.40
2022-09-24T02:40:43.410Z,18.23
2022-09-24T02:43:28.295Z,19.17
2022-09-24T02:46:13.144Z,18.35
2022-09-24T02:48:58.680Z,19.15
2022-09-24T02:51:44.643Z,18.63
2022-09-24T02:54:30.132Z,18.48
2022-09-24T02:57:15.607Z,19.02
2022-09-24T03:00:00.932Z,18.20
2022-09-24T03:02:46.785Z,17.50
2022-09-24T03:05:32.102Z,19.00
2022-09-24T03:08:17.251Z,22.17
2022-09-24T03:11:02.460Z,20.75
2022-09-24T03:13:48.038Z,19.75
2022-09-24T03:16:33.676Z,19.77
2022-09-24T03:19:18.608Z,24.38
2022-09-24T03:22:03.653Z,20.50
2022-09-24T03:24:49.005Z,20.00
2022-09-24T03:27:34.166Z,20.98
2022-09-24T03:30:19.562Z,19.95
2022-09-24T03:33:04.670Z,19.25
2022-09-24T03:35:49.708Z,19.00
2022-09-24T03:38:36.893Z,19.65
2022-09-24T03:41:23.511Z,19.15
2022-09-24T03:44:09.087Z,18.80
2022-09-24T03:46:54.433Z,21.00
2022-09-24T03:49:39.816Z,20.80
2022-09-24T03:52:25.651Z,19.98
2022-09-24T03:55:10.545Z,18.45
2022-09-24T03:57:55.345Z,19.05
2022-09-24T04:00:41.193Z,18.75
2022-09-24T04:03:26.332Z,19.38
2022-09-24T04:06:11.401Z,18.95
2022-09-24T04:08:57.631Z,19.55
2022-09-24T04:11:42.528Z,19.90
2022-09-24T04:14:27.978Z,19.58
2022-09-24T04:17:12.967Z,20.73
2022-09-24T04:19:58.757Z,21.23
2022-09-24T04:22:44.438Z,23.60
2022-09-24T04:25:31.351Z,22.95
2022-09-24T04:28:16.519Z,20.85
2022-09-24T04:31:01.665Z,22.20
2022-09-24T04:33:46.985Z,24.88
2022-09-24T04:36:32.303Z,23.08
2022-09-24T04:39:17.636Z,22.95
2022-09-24T04:42:02.706Z,23.80
2022-09-24T04:44:48.840Z,23.90
2022-09-24T04:47:37.095Z,21.58
2022-09-24T04:50:23.996Z,20.73
2022-09-24T04:53:09.190Z,20.10
2022-09-24T04:55:54.224Z,20.45
2022-09-24T04:58:40.007Z,22.55
2022-09-24T05:01:25.379Z,25.13
2022-09-24T05:04:10.781Z,25.45
2022-09-24T05:06:55.755Z,26.08
2022-09-24T05:09:41.159Z,27.20
2022-09-24T05:12:26.608Z,28.58
2022-09-24T05:15:11.416Z,28.92
2022-09-24T05:17:57.312Z,27.80
2022-09-24T05:20:42.308Z,30.45
2022-09-24T05:23:27.687Z,33.58
2022-09-24T05:26:12.738Z,32.92
2022-09-24T05:28:58.060Z,31.02
2022-09-24T05:31:43.191Z,32.38
2022-09-24T05:34:28.399Z,38.33
2022-09-24T05:37:15.167Z,42.80
2022-09-24T05:40:00.644Z,45.83
2022-09-24T05:42:45.827Z,45.53
2022-09-24T05:45:32.236Z,45.83
2022-09-24T05:48:17.130Z,50.88
2022-09-24T05:51:02.501Z,43.75
2022-09-24T05:53:47.565Z,46.17
2022-09-24T05:56:32.998Z,45.63
2022-09-24T05:59:17.878Z,45.60
2022-09-24T06:02:02.865Z,50.70
2022-09-24T06:04:48.222Z,49.70
2022-09-24T06:07:33.632Z,55.70
2022-09-24T06:10:18.526Z,50.33
2022-09-24T06:13:04.325Z,51.30
2022-09-24T06:15:49.414Z,48.50
2022-09-24T06:18:35.697Z,44.38
2022-09-24T06:21:20.811Z,46.42
2022-09-24T06:24:06.074Z,49.03
2022-09-24T06:26:52.087Z,49.10
2022-09-24T06:29:36.962Z,46.75
2022-09-24T06:32:23.761Z,50.55
2022-09-24T06:35:08.986Z,48.55
2022-09-24T06:37:53.974Z,52.38
2022-09-24T06:40:39.480Z,53.47
2022-09-24T06:43:24.749Z,51.53
2022-09-24T06:46:10.043Z,48.78
2022-09-24T06:48:54.965Z,45.97
2022-09-24T06:51:39.917Z,48.00
2022-09-24T06:54:25.248Z,52.28
2022-09-24T06:57:10.536Z,48.97
2022-09-24T06:59:55.435Z,48.97
2022-09-24T07:02:41.097Z,48.60
2022-09-24T07:05:26.469Z,44.83
2022-09-24T07:08:11.735Z,45.67
2022-09-24T07:10:57.016Z,43.35
2022-09-24T07:13:41.770Z,42.80
2022-09-24T07:16:27.144Z,45.72
2022-09-24T07:19:12.520Z,50.53
2022-09-24T07:21:57.442Z,45.88
2022-09-24T07:24:42.501Z,50.20
2022-09-24T07:27:27.333Z,48.80
2022-09-24T07:30:13.109Z,46.17
2022-09-24T07:32:58.004Z,47.10
2022-09-24T07:35:42.916Z,48.95
2022-09-24T07:38:27.840Z,54.00
2022-09-24T07:41:12.885Z,50.92
2022-09-24T07:43:57.775Z,56.25
2022-09-24T07:46:42.695Z,52.38
2022-09-24T07:49:28.047Z,56.75
2022-09-24T07:52:12.756Z,49.30
2022-09-24T07:54:57.730Z,56.88
2022-09-24T07:57:47.373Z,48.22
2022-09-24T08:00:32.474Z,48.03
2022-09-24T08:03:17.642Z,51.53
2022-09-24T08:06:04.436Z,45.95
2022-09-24T08:08:50.324Z,48.67
2022-09-24T08:11:35.747Z,49.55
2022-09-24T08:14:21.055Z,48.67
2022-09-24T08:17:06.061Z,48.60
2022-09-24T08:19:51.276Z,44.97
2022-09-24T08:22:36.554Z,47.00
2022-09-24T08:25:22.038Z,52.30
2022-09-24T08:28:08.563Z,55.25
2022-09-24T08:31:06.953Z,48.45
2022-09-24T08:33:52.051Z,44.15
2022-09-24T08:36:42.090Z,51.22
2022-09-24T08:39:28.156Z,48.72
2022-09-24T08:42:36.232Z,54.85
2022-09-24T08:45:21.293Z,53.88
2022-09-24T08:48:16.036Z,48.42
2022-09-24T08:51:05.098Z,46.53
2022-09-24T08:53:58.226Z,50.45
2022-09-24T08:56:46.188Z,48.67
2022-09-24T08:59:35.171Z,47.78
2022-09-24T09:02:47.699Z,45.92
2022-09-24T09:05:59.090Z,46.33
2022-09-24T09:09:11.848Z,48.17
2022-09-24T09:12:01.699Z,46.63
2022-09-24T09:14:57.579Z,51.30
2022-09-24T09:17:55.029Z,49.83
2022-09-24T09:20:45.973Z,49.90
2022-09-24T09:23:59.404Z,51.13
2022-09-24T09:26:50.512Z,51.90
2022-09-24T09:29:36.397Z,56.30
2022-09-24T09:32:24.504Z,50.70
2022-09-24T09:35:24.029Z,49.25
2022-09-24T09:38:38.251Z,48.47
2022-09-24T09:41:35.731Z,48.97
2022-09-24T09:44:27.744Z,50.95
2022-09-24T09:47:18.357Z,50.20
2022-09-24T09:50:14.297Z,45.08
2022-09-24T09:52:59.920Z,42.55
2022-09-24T09:55:52.296Z,45.35
2022-09-24T09:58:45.975Z,42.90
2022-09-24T10:01:32.882Z,45.08
2022-09-24T10:04:33.146Z,41.90
2022-09-24T10:07:17.992Z,40.33
2022-09-24T10:10:18.745Z,42.67
2022-09-24T10:13:12.834Z,43.58
2022-09-24T10:16:10.074Z,46.88
2022-09-24T10:18:55.507Z,48.50
2022-09-24T10:21:40.976Z,46.03
2022-09-24T10:24:27.872Z,45.33
2022-09-24T10:27:21.657Z,46.25
2022-09-24T10:30:16.539Z,47.33
2022-09-24T10:33:04.450Z,46.88
2022-09-24T10:35:49.973Z,44.47
2022-09-24T10:38:35.008Z,38.90
2022-09-24T10:41:27.587Z,38.85
2022-09-24T10:44:12.616Z,38.22
2022-09-24T10:47:16.707Z,40.03
2022-09-24T10:50:16.933Z,41.38
2022-09-24T10:53:14.374Z,37.53
2022-09-24T10:56:05.778Z,37.30
2022-09-24T10:59:23.304Z,35.08
2022-09-24T11:02:20.679Z,36.28
2022-09-24T11:05:12.630Z,34.15
2022-09-24T11:08:17.833Z,35.83
2022-09-24T11:11:03.230Z,36.90
2022-09-24T11:13:57.288Z,35.40
2022-09-24T11:17:17.567Z,38.80
2022-09-24T11:20:14.556Z,34.95
2022-09-24T11:23:24.839Z,33.15
2022-09-24T11:26:28.757Z,32.72
2022-09-24T11:29:36.980Z,31.70
2022-09-24T11:32:36.942Z,34.35
2022-09-24T11:35:40.856Z,30.92
2022-09-24T11:38:44.121Z,29.08
2022-09-24T11:41:39.261Z,28.85
2022-09-24T11:44:49.196Z,29.20
2022-09-24T11:48:10.005Z,29.25
2022-09-24T11:51:26.009Z,28.77
2022-09-24T11:54:19.070Z,28.35
2022-09-24T11:57:16.095Z,23.85
2022-09-24T12:00:14.921Z,23.30
2022-09-24T12:03:10.790Z,23.58
2022-09-24T12:06:22.170Z,19.35
2022-09-24T12:09:21.163Z,19.73
2022-09-24T12:12:39.724Z,19.38
2022-09-24T12:15:30.544Z,21.42
2022-09-24T12:18:21.251Z,27.70
2022-09-24T12:21:11.556Z,30.88
2022-09-24T12:24:03.374Z,32.53
2022-09-24T12:26:50.957Z,28.40
2022-09-24T12:30:00.161Z,29.08
2022-09-24T12:33:03.963Z,28.90
2022-09-24T12:36:10.793Z,28.83
2022-09-24T12:39:04.166Z,29.75
2022-09-24T12:41:57.399Z,31.98
2022-09-24T12:44:54.831Z,33.28
2022-09-24T12:47:51.897Z,32.45
2022-09-24T12:50:37.761Z,32.80
2022-09-24T12:53:23.731Z,32.00
2022-09-24T12:56:10.462Z,34.83
2022-09-24T12:58:56.435Z,36.42
2022-09-24T13:01:41.325Z,32.55
2022-09-24T13:04:28.678Z,32.33
2022-09-24T13:07:40.362Z,29.58
2022-09-24T13:10:31.981Z,31.42
2022-09-24T13:13:30.118Z,30.45
2022-09-24T13:16:20.524Z,32.35
2022-09-24T13:19:22.172Z,32.17
2022-09-24T13:22:21.909Z,31.50
2022-09-24T13:25:07.113Z,31.88
2022-09-24T13:28:17.876Z,30.27
2022-09-24T13:31:14.454Z,30.40
2022-09-24T13:34:12.385Z,30.45
2022-09-24T13:37:18.865Z,30.95
2022-09-24T13:40:19.401Z,30.98
2022-09-24T13:43:15.985Z,28.63
2022-09-24T13:46:04.912Z,21.33
2022-09-24T13:48:57.064Z,17.42
2022-09-24T13:51:51.647Z,16.85
2022-09-24T13:54:48.228Z,17.27
2022-09-24T13:57:43.908Z,16.33
2022-09-24T14:00:30.388Z,15.88
2022-09-24T14:03:26.485Z,17.13
2022-09-24T14:06:14.999Z,16.63
2022-09-24T14:09:00.357Z,15.85
2022-09-24T14:11:50.827Z,15.10
2022-09-24T14:14:35.966Z,15.15
2022-09-24T14:17:21.331Z,17.58
2022-09-24T14:20:08.777Z,20.70
2022-09-24T14:22:53.939Z,26.35
2022-09-24T14:25:39.297Z,27.50
2022-09-24T14:28:25.394Z,28.90
2022-09-24T14:31:10.574Z,27.55
2022-09-24T14:33:56.335Z,28.65
2022-09-24T14:36:41.701Z,21.50
2022-09-24T14:39:29.318Z,20.02
2022-09-24T14:42:46.518Z,19.05
2022-09-24T14:45:35.294Z,19.13
2022-09-24T14:48:34.760Z,17.23
2022-09-24T14:51:30.436Z,16.65
2022-09-24T14:54:25.883Z,16.48
2022-09-24T14:57:10.687Z,15.73
2022-09-24T14:59:55.757Z,15.88
2022-09-24T15:02:41.074Z,16.95
2022-09-24T15:05:28.036Z,16.25
2022-09-24T15:08:27.367Z,16.63
2022-09-24T15:11:17.426Z,17.55
2022-09-24T15:14:12.104Z,15.50
2022-09-24T15:17:09.148Z,14.27
2022-09-24T15:19:54.542Z,15.27
2022-09-24T15:22:39.676Z,14.73
2022-09-24T15:25:25.093Z,15.40
2022-09-24T15:28:14.210Z,15.50
2022-09-24T15:30:59.601Z,15.98
2022-09-24T15:33:45.055Z,16.88
2022-09-24T15:36:30.386Z,16.08
2022-09-24T15:39:17.296Z,15.18
2022-09-24T15:42:02.416Z,15.45
2022-09-24T15:44:47.832Z,15.75
2022-09-24T15:47:32.949Z,15.85
2022-09-24T15:50:20.513Z,15.45
2022-09-24T15:53:06.811Z,15.88
2022-09-24T15:55:58.098Z,16.98
2022-09-24T15:58:43.174Z,17.88
2022-09-24T16:01:28.363Z,19.00
2022-09-24T16:04:14.021Z,27.67
2022-09-24T16:06:59.118Z,28.77
2022-09-24T16:09:44.705Z,30.40
2022-09-24T16:12:29.681Z,29.63
2022-09-24T16:15:16.144Z,32.00
2022-09-24T16:18:01.052Z,31.85
2022-09-24T16:20:45.895Z,33.92
2022-09-24T16:23:30.983Z,35.53
2022-09-24T16:26:15.879Z,37.20
2022-09-24T16:29:05.757Z,37.10
2022-09-24T16:31:50.954Z,40.97
2022-09-24T16:34:36.034Z,39.88
2022-09-24T16:37:21.218Z,40.80
2022-09-24T16:40:07.416Z,40.58
2022-09-24T16:42:52.489Z,41.15
2022-09-24T16:45:37.400Z,40.95
2022-09-24T16:48:22.419Z,40.92
2022-09-24T16:51:10.598Z,42.10
2022-09-24T16:53:56.317Z,44.45
2022-09-24T16:56:41.707Z,50.67
2022-09-24T16:59:27.358Z,43.83
2022-09-24T17:02:12.487Z,42.70
2022-09-24T17:04:59.792Z,43.78
2022-09-24T17:07:46.716Z,43.58
2022-09-24T17:10:31.742Z,41.35
2022-09-24T17:13:17.012Z,46.45
2022-09-24T17:16:02.804Z,42.92
2022-09-24T17:18:48.347Z,45.47
2022-09-24T17:21:35.053Z,41.67
2022-09-24T17:24:22.114Z,43.28
2022-09-24T17:27:07.937Z,44.17
2022-09-24T17:29:53.471Z,43.42
2022-09-24T17:32:38.724Z,45.75
2022-09-24T17:35:23.902Z,46.25
2022-09-24T17:38:09.311Z,45.10
2022-09-24T17:40:59.164Z,43.85
2022-09-24T17:43:44.943Z,44.67
2022-09-24T17:46:31.978Z,45.15
2022-09-24T17:49:17.342Z,45.78
2022-09-24T17:52:03.157Z,47.47
2022-09-24T17:54:48.059Z,46.00
2022-09-24T17:57:33.029Z,54.63
2022-09-24T18:00:18.427Z,60.13
2022-09-24T18:03:03.489Z,53.85
2022-09-24T18:05:48.897Z,50.95
2022-09-24T18:08:40.452Z,51.20
2022-09-24T18:11:28.577Z,55.78
2022-09-24T18:14:16.519Z,52.10
2022-09-24T18:17:01.627Z,49.80
2022-09-24T18:19:46.460Z,50.70
2022-09-24T18:22:32.631Z,48.67
2022-09-24T18:25:17.919Z,46.85
2022-09-24T18:28:03.467Z,45.45
2022-09-24T18:30:48.835Z,47.40
2022-09-24T18:33:35.564Z,48.42
2022-09-24T18:36:22.566Z,46.58
2022-09-24T18:39:10.165Z,47.10
2022-09-24T18:41:55.079Z,49.35
2022-09-24T18:44:40.636Z,52.85
2022-09-24T18:47:25.696Z,56.55
2022-09-24T18:50:10.949Z,58.03
2022-09-24T18:52:56.166Z,58.25
2022-09-24T18:55:43.151Z,56.92
2022-09-24T18:58:28.709Z,55.38
2022-09-24T19:01:14.362Z,47.75
2022-09-24T19:04:00.448Z,44.70
2022-09-24T19:06:47.049Z,40.42
2022-09-24T19:09:32.525Z,36.55
2022-09-24T19:12:17.781Z,38.33
2022-09-24T19:15:03.469Z,40.88
2022-09-24T19:17:48.884Z,39.90
2022-09-24T19:20:42.856Z,39.30
2022-09-24T19:23:28.297Z,38.08
2022-09-24T19:26:20.205Z,35.97
2022-09-24T19:29:05.611Z,35.72
2022-09-24T19:31:50.718Z,36.22
2022-09-24T19:34:36.282Z,33.40
2022-09-24T19:37:21.274Z,34.13
2022-09-24T19:40:07.255Z,35.03
2022-09-24T19:42:52.410Z,34.05
2022-09-24T19:45:37.289Z,36.25
2022-09-24T19:48:22.721Z,38.13
2022-09-24T19:51:12.155Z,37.47
2022-09-24T19:54:03.503Z,35.42
2022-09-24T19:56:48.802Z,35.42
2022-09-24T19:59:33.749Z,35.60
2022-09-24T20:02:19.343Z,36.15
2022-09-24T20:05:05.196Z,33.10
2022-09-24T20:07:50.473Z,33.70
2022-09-24T20:10:36.267Z,34.17
2022-09-24T20:13:21.484Z,33.72
2022-09-24T20:16:06.832Z,25.98
2022-09-24T20:18:54.604Z,27.98
2022-09-24T20:21:40.061Z,27.40
2022-09-24T20:24:25.505Z,26.50
2022-09-24T20:27:12.320Z,28.58
2022-09-24T20:29:57.427Z,25.95
2022-09-24T20:32:42.429Z,25.85
2022-09-24T20:35:27.672Z,26.80
2022-09-24T20:38:12.574Z,25.27
2022-09-24T20:40:57.910Z,25.13
2022-09-24T20:43:43.780Z,23.92
2022-09-24T20:46:29.161Z,25.38
2022-09-24T20:49:18.818Z,25.83
2022-09-24T20:52:03.628Z,27.35
2022-09-24T20:54:49.058Z,28.20
2022-09-24T20:57:33.869Z,29.50
2022-09-24T21:00:18.987Z,30.15
2022-09-24T21:03:20.081Z,27.40
2022-09-24T21:06:11.125Z,29.08
2022-09-24T21:08:57.166Z,30.10
2022-09-24T21:11:42.340Z,27.83
2022-09-24T21:14:27.596Z,30.17
2022-09-24T21:17:13.301Z,29.17
2022-09-24T21:19:58.595Z,29.45
2022-09-24T21:22:43.735Z,27.38
2022-09-24T21:25:52.931Z,29.40
2022-09-24T21:28:33.647Z,26.83
2022-09-24T21:31:21.674Z,27.63
2022-09-24T21:34:07.628Z,27.27
2022-09-24T21:36:52.688Z,28.20
2022-09-24T21:39:37.659Z,27.63
2022-09-24T21:42:22.515Z,28.58
2022-09-24T21:45:08.125Z,28.17
2022-09-24T21:47:53.278Z,26.33
2022-09-24T21:50:40.431Z,26.05
2022-09-24T21:53:25.868Z,28.38
2022-09-24T21:56:10.911Z,29.52
2022-09-24T21:58:56.291Z,28.65
2022-09-24T22:01:41.343Z,29.35
2022-09-24T22:04:27.152Z,31.55
2022-09-24T22:07:12.121Z,32.85
2022-09-24T22:09:57.210Z,32.92
2022-09-24T22:12:42.421Z,32.70
2022-09-24T22:15:27.341Z,29.83
2022-09-24T22:18:12.955Z,31.33
2022-09-24T22:20:58.231Z,31.88
2022-09-24T22:23:43.198Z,31.15
2022-09-24T22:26:28.741Z,30.58
2022-09-24T22:29:13.955Z,34.78
2022-09-24T22:31:59.177Z,35.75
2022-09-24T22:34:43.862Z,33.30
2022-09-24T22:37:28.823Z,35.20
2022-09-24T22:40:14.402Z,32.60
2022-09-24T22:42:59.845Z,32.45
2022-09-24T22:45:44.766Z,35.30
2022-09-24T22:48:30.457Z,36.38
2022-09-24T22:51:15.303Z,33.80
2022-09-24T22:54:00.079Z,35.85
2022-09-24T22:56:45.153Z,35.08
2022-09-24T22:59:30.759Z,35.33
2022-09-24T23:02:15.906Z,35.35
2022-09-24T23:05:01.523Z,35.90
2022-09-24T23:07:46.824Z,38.55
2022-09-24T23:10:31.995Z,36.63
2022-09-24T23:13:16.811Z,37.58
2022-09-24T23:16:16.537Z,36.22
2022-09-24T23:19:05.060Z,36.55
2022-09-24T23:21:50.068Z,36.75
2022-09-24T23:24:35.165Z,37.05
2022-09-24T23:27:20.503Z,38.78
2022-09-24T23:30:06.209Z,40.40
2022-09-24T23:32:51.504Z,37.28
2022-09-24T23:35:36.402Z,41.30
2022-09-24T23:38:21.707Z,38.60
2022-09-24T23:41:08.264Z,37.28
2022-09-24T23:43:53.848Z,42.28
2022-09-24T23:46:39.051Z,39.60
2022-09-24T23:49:23.942Z,39.58
2022-09-24T23:52:08.869Z,42.15
2022-09-24T23:54:53.657Z,43.35
2022-09-24T23:57:38.378Z,43.38
